Weather at Baramita Airport

Public forecast

Using degrees Celsius for public forecast. Weather courtesy of forecast.io.

Closest aviation weather report (METAR) to Baramita Airport

Report is more than 6 hours old.

Closest report is Tumeremo Airport, 62.4 nm (115.6 km) W. Retrieved 2015/01/29 12:00 UTC (6 years ago):

SVTM 291200Z NI SVPA 291200 /////KT 9999 FEW013 25/22 Q1011

Closest aviation forecast (TAF) to Baramita Airport

Forecast is more than 12 hours old.

Closest forecast is Mabaruma Airport, 65.3 nm (121.0 km) NE. Retrieved 2021/07/22 12:00 UTC (3 days ago):

TAF SYMB 221100Z 2212/2223 10010KT 5000 SHRA BKN015 BKN080 BECMG 2218/2220 9999 FEW015CB BKN016